• Join FlightAware (Why Join?)
  • Login
  • US Flag 
04:01PM EDT


 

Airport Tracker/Info


-or-


 

Live Flight TrackerFlight Track Log ✈ FFT815 ✈ 30-Apr-2013 ✈ KMCI - KDEN

Flight Track Log - Related Links

Times and Time Zones

All times are in EDT time to prevent confusion due to time zone crossing. See the FFT815 flight status page for this flight to view local times or setup timezone preferences in your user account.

Time Position Orientation Groundspeed Altitude Reporting Facility
EDT Latitude Longitude Course Direction KTS MPH feet Rate Location/Type
07:32AM 39.2667 -94.7167 218° Southwest 160 184 2,000  Level Kansas City TRACON
07:33AM 39.2333 -94.7500 218° Southwest 185 213 4,500 2,760 Climbing Kansas City TRACON
07:34AM 39.2136 -94.7878 236° Southwest 218 251 6,600 3,120 Climbing Kansas City Center
07:35AM 39.2111 -94.8742 268° West 253 291 9,600 2,640 Climbing Kansas City Center
07:36AM 39.2119 -94.9744 271° West 293 337 12,000 2,820 Climbing Kansas City Center
07:37AM 39.2125 -95.1058 270° West 327 376 15,400 3,240 Climbing Kansas City Center
07:38AM 39.2131 -95.2319 270° West 341 392 18,700 2,880 Climbing Kansas City Center
07:39AM 39.2136 -95.3597 270° West 354 407 21,300 2,400 Climbing Kansas City Center
07:40AM 39.2036 -95.4800 264° West 364 419 23,700 2,220 Climbing Kansas City Center
07:41AM 39.1992 -95.6328 268° West 385 443 25,900 1,920 Climbing Kansas City Center
07:42AM 39.2064 -95.7669 274° West 390 449 27,700 1,620 Climbing Kansas City Center
07:43AM 39.2247 -95.9053 280° West 407 468 29,300 1,680 Climbing Kansas City Center
07:44AM 39.2478 -96.0686 280° West 415 478 31,200 1,800 Climbing Kansas City Center
07:45AM 39.2597 -96.2119 276° West 418 481 33,000 1,860 Climbing Kansas City Center
07:46AM 39.2561 -96.3792 268° West 418 481 35,100 1,920 Climbing Kansas City Center
07:47AM 39.2519 -96.5183 268° West 408 470 37,000 1,380 Climbing Kansas City Center
07:48AM 39.2428 -96.6528 265° West 397 457 38,000 480 Climbing Kansas City Center
07:49AM 39.2353 -96.8114 267° West 396 456 38,000  Level Kansas City Center
07:50AM 39.2278 -96.9469 266° West 397 457 38,000  Level Kansas City Center
07:51AM 39.2194 -97.0864 266° West 405 466 38,000  Level Kansas City Center
07:52AM 39.2114 -97.2525 266° West 414 476 38,000  Level Kansas City Center
07:53AM 39.2028 -97.3942 266° West 415 478 38,000  Level Kansas City Center
07:54AM 39.1931 -97.5625 266° West 422 486 38,000  Level Kansas City Center
07:55AM 39.1839 -97.7056 265° West 419 482 38,000  Level Kansas City Center
07:56AM 39.1728 -97.8567 265° West 424 488 38,100  Climbing Kansas City Center
07:57AM 39.1633 -98.0078 265° West 425 489 38,000 -60 Descending Kansas City Center
07:58AM 39.1531 -98.1553 265° West 420 483 38,000  Level Kansas City Center
07:59AM 39.1436 -98.2997 265° West 412 474 38,000  Level Kansas City Center
08:00AM 39.1336 -98.4467 265° West 413 475 38,000  Level Kansas City Center
08:01AM 39.1236 -98.5931 265° West 413 475 38,000  Level Kansas City Center
08:02AM 39.1125 -98.7400 264° West 413 475 38,000  Level Kansas City Center
08:03AM 39.1022 -98.8786 265° West 413 475 38,000  Level Denver Center
08:04AM 39.0906 -99.0453 265° West 414 476 38,000  Level Denver Center
08:05AM 39.0781 -99.2128 265° West 420 483 38,000  Level Denver Center
08:06AM 39.0625 -99.3978 264° West 411 473 38,000  Level Denver Center
08:08AM 39.0519 -99.5358 264° West 407 468 38,000  Level Denver Center
08:09AM 39.0383 -99.7000 264° West 415 478 38,000  Level Denver Center
08:10AM 39.0264 -99.8419 264° West 417 480 38,000  Level Denver Center
08:11AM 39.0144 -99.9839 264° West 418 481 38,000  Level Denver Center
08:12AM 39.0028 -100.1300 264° West 420 483 38,000  Level Denver Center
08:13AM 38.9886 -100.2975 264° West 422 486 38,000  Level Denver Center
08:14AM 38.9758 -100.4358 263° West 422 486 38,000  Level Denver Center
08:15AM 38.9639 -100.5786 264° West 420 483 38,100  Climbing Denver Center
08:16AM 38.9486 -100.7439 263° West 419 482 38,000 -60 Descending Denver Center
08:17AM 38.9358 -100.8847 263° West 416 479 38,000  Level Denver Center
08:18AM 38.9233 -101.0236 263° West 413 475 38,000  Level Denver Center
08:19AM 38.9078 -101.1872 263° West 415 478 38,000  Level Denver Center
08:20AM 38.8944 -101.3272 263° West 414 476 38,000  Level Denver Center
08:21AM 38.8814 -101.4692 263° West 419 482 38,000  Level Denver Center
08:22AM 38.8678 -101.6078 263° West 412 474 38,000  Level Denver Center
08:23AM 38.8511 -101.7714 263° West 413 475 38,000  Level Denver Center
08:24AM 38.8478 -101.9097 268° West 410 472 38,000  Level Denver Center
08:25AM 38.8453 -102.0744 269° West 415 478 38,000  Level Denver Center
08:26AM 38.8422 -102.2167 268° West 416 479 38,100  Climbing Denver Center
08:27AM 38.8397 -102.3817 269° West 417 480 38,000 -240 Descending Denver Center
08:28AM 38.8372 -102.5228 269° West 415 478 37,700 -420 Descending Denver Center
08:29AM 38.8356 -102.6614 269° West 409 471 37,200 -960 Descending Denver Center
08:30AM 38.8669 -102.8125 285° West 402 463 35,800 -2,100 Descending Denver Center
08:31AM 38.9242 -102.9367 301° West 401 461 33,000 -3,000 Descending Denver Center
08:32AM 38.9861 -103.0661 302° West 421 484 29,700 -2,940 Descending Denver Center
08:33AM 39.0464 -103.1925 302° West 412 474 27,100 -1,800 Descending Denver Center
08:34AM 39.1031 -103.3114 302° West 391 450 26,100 -1,020 Descending Denver Center
08:35AM 39.1597 -103.4297 302° West 385 443 25,100 -1,440 Descending Denver Center
08:36AM 39.2150 -103.5492 301° West 386 444 23,300 -2,040 Descending Denver Center
08:37AM 39.2697 -103.6639 302° West 375 432 21,000 -2,160 Descending Denver Center
08:38AM 39.3206 -103.7742 301° West 358 412 19,000 -1,620 Descending Denver Center
08:39AM 39.3678 -103.8753 301° West 334 384 17,800 -1,080 Descending Denver Center
08:40AM 39.3547 -103.9725 260° West 289 333 16,900 -900 Descending Denver Center
08:41AM 39.3233 -104.0719 248° West 292 336 16,000 -1,380 Descending Denver Center
08:42AM 39.3244 -104.1811 271° West 305 351 14,200 -1,500 Descending Denver Center
08:43AM 39.3297 -104.2883 274° West 282 325 13,000 -720 Descending Denver Center
08:44AM 39.3708 -104.3658 304° West 257 296 12,800 -720 Descending Denver Center
08:45AM 39.4083 -104.4408 303° West 250 288 11,600 -1,140 Descending Denver Center
08:46AM 39.4467 -104.5156 304° West 248 285 10,600 -840 Descending Denver Center
08:47AM 39.4894 -104.5853 308° West 251 289 10,000 -300 Descending Denver Center
08:48AM 39.5528 -104.6267 333° Northwest 255 293 10,000 -360 Level Denver Center
08:49AM 39.6225 -104.6625 338° Northwest 250 288 9,300 -1,020 Descending Denver Center
08:50AM 39.6928 -104.6617 North 251 289 8,000 -1,260 Descending Denver Center
08:51AM 39.7561 -104.6617 360° North 219 252 6,800 -1,020 Descending Denver Center
08:52AM 39.7992 -104.6614 360° North 152 175 6,000 -720 Descending Denver Center
08:53AM 39.8422 -104.6617 360° North 142 163 5,300 -600 Descending Denver Center
08:55AM 39.8500 -104.6667 350° North  Level FlightAware Approximate